sensor_id;sensor_type;location;lat;lon;timestamp;temperature;humidity
52321;DHT22;38261;54.090;13.382;2023-06-19T00:01:16;16.80;99.90
52321;DHT22;38261;54.090;13.382;2023-06-19T00:02:39;16.80;99.90
52321;DHT22;38261;54.090;13.382;2023-06-19T00:04:01;16.80;99.90
52321;DHT22;38261;54.090;13.382;2023-06-19T00:05:24;16.80;99.90
52321;DHT22;38261;54.090;13.382;2023-06-19T00:06:47;16.80;99.90
52321;DHT22;38261;54.090;13.382;2023-06-19T00:08:10;16.80;99.90
52321;DHT22;38261;54.090;13.382;2023-06-19T00:09:32;16.70;99.90
52321;DHT22;38261;54.090;13.382;2023-06-19T00:10:55;16.70;99.90
52321;DHT22;38261;54.090;13.382;2023-06-19T00:12:17;16.70;99.90
52321;DHT22;38261;54.090;13.382;2023-06-19T00:13:39;16.70;99.90
52321;DHT22;38261;54.090;13.382;2023-06-19T00:15:01;16.70;99.90
52321;DHT22;38261;54.090;13.382;2023-06-19T00:16:24;16.70;99.90
52321;DHT22;38261;54.090;13.382;2023-06-19T00:17:47;16.70;99.90
52321;DHT22;38261;54.090;13.382;2023-06-19T00:19:09;16.70;99.90
52321;DHT22;38261;54.090;13.382;2023-06-19T00:20:32;16.60;99.90
52321;DHT22;38261;54.090;13.382;2023-06-19T00:21:56;16.60;99.90
52321;DHT22;38261;54.090;13.382;2023-06-19T00:23:19;16.60;99.90
52321;DHT22;38261;54.090;13.382;2023-06-19T00:24:41;16.60;99.90
52321;DHT22;38261;54.090;13.382;2023-06-19T00:26:03;16.50;99.90
52321;DHT22;38261;54.090;13.382;2023-06-19T00:27:26;16.50;99.90
52321;DHT22;38261;54.090;13.382;2023-06-19T00:28:49;16.50;99.90
52321;DHT22;38261;54.090;13.382;2023-06-19T00:30:11;16.50;99.90
52321;DHT22;38261;54.090;13.382;2023-06-19T00:31:33;16.50;99.90
52321;DHT22;38261;54.090;13.382;2023-06-19T00:32:59;16.50;99.90
52321;DHT22;38261;54.090;13.382;2023-06-19T00:34:25;16.50;99.90
52321;DHT22;38261;54.090;13.382;2023-06-19T00:35:50;16.50;99.90
52321;DHT22;38261;54.090;13.382;2023-06-19T00:37:12;16.50;99.90
52321;DHT22;38261;54.090;13.382;2023-06-19T00:38:35;16.40;99.90
52321;DHT22;38261;54.090;13.382;2023-06-19T00:39:57;16.40;99.90
52321;DHT22;38261;54.090;13.382;2023-06-19T00:41:21;16.40;99.90
52321;DHT22;38261;54.090;13.382;2023-06-19T00:42:44;16.30;99.90
52321;DHT22;38261;54.090;13.382;2023-06-19T00:44:06;16.30;99.90
52321;DHT22;38261;54.090;13.382;2023-06-19T00:45:29;16.30;99.90
52321;DHT22;38261;54.090;13.382;2023-06-19T00:46:57;16.30;99.90
52321;DHT22;38261;54.090;13.382;2023-06-19T00:48:21;16.30;99.90
52321;DHT22;38261;54.090;13.382;2023-06-19T00:49:44;16.30;99.90
52321;DHT22;38261;54.090;13.382;2023-06-19T00:51:06;16.30;99.90
52321;DHT22;38261;54.090;13.382;2023-06-19T00:52:28;16.30;99.90
52321;DHT22;38261;54.090;13.382;2023-06-19T00:53:50;16.30;99.90
52321;DHT22;38261;54.090;13.382;2023-06-19T00:55:13;16.20;99.90
52321;DHT22;38261;54.090;13.382;2023-06-19T00:56:37;16.20;99.90
52321;DHT22;38261;54.090;13.382;2023-06-19T00:58:00;16.20;99.90
52321;DHT22;38261;54.090;13.382;2023-06-19T00:59:23;16.10;99.90
52321;DHT22;38261;54.090;13.382;2023-06-19T01:00:45;16.10;99.90
52321;DHT22;38261;54.090;13.382;2023-06-19T01:02:25;16.10;99.90
52321;DHT22;38261;54.090;13.382;2023-06-19T01:03:48;16.00;99.90
52321;DHT22;38261;54.090;13.382;2023-06-19T01:05:10;15.90;99.90
52321;DHT22;38261;54.090;13.382;2023-06-19T01:06:50;15.90;99.90
52321;DHT22;38261;54.090;13.382;2023-06-19T01:08:41;15.90;99.90
52321;DHT22;38261;54.090;13.382;2023-06-19T01:10:07;15.90;99.90
52321;DHT22;38261;54.090;13.382;2023-06-19T01:11:37;15.90;99.90
52321;DHT22;38261;54.090;13.382;2023-06-19T01:13:33;15.90;99.90
52321;DHT22;38261;54.090;13.382;2023-06-19T01:15:02;15.80;99.90
52321;DHT22;38261;54.090;13.382;2023-06-19T01:16:26;15.80;99.90
52321;DHT22;38261;54.090;13.382;2023-06-19T01:17:48;15.80;99.90
52321;DHT22;38261;54.090;13.382;2023-06-19T01:19:15;15.80;99.90
52321;DHT22;38261;54.090;13.382;2023-06-19T01:20:39;15.80;99.90
52321;DHT22;38261;54.090;13.382;2023-06-19T01:22:03;15.80;99.90
52321;DHT22;38261;54.090;13.382;2023-06-19T01:23:26;15.80;99.90
52321;DHT22;38261;54.090;13.382;2023-06-19T01:24:48;15.80;99.90
52321;DHT22;38261;54.090;13.382;2023-06-19T01:26:11;15.80;99.90
52321;DHT22;38261;54.090;13.382;2023-06-19T01:27:33;15.80;99.90
52321;DHT22;38261;54.090;13.382;2023-06-19T01:28:56;15.80;99.90
52321;DHT22;38261;54.090;13.382;2023-06-19T01:30:18;15.80;99.90
52321;DHT22;38261;54.090;13.382;2023-06-19T01:34:42;15.70;99.90
52321;DHT22;38261;54.090;13.382;2023-06-19T01:36:05;15.70;99.90
52321;DHT22;38261;54.090;13.382;2023-06-19T01:37:29;15.70;99.90
52321;DHT22;38261;54.090;13.382;2023-06-19T01:38:56;15.70;99.90
52321;DHT22;38261;54.090;13.382;2023-06-19T01:40:19;15.60;99.90
52321;DHT22;38261;54.090;13.382;2023-06-19T01:41:47;15.60;99.90
52321;DHT22;38261;54.090;13.382;2023-06-19T01:43:10;15.60;99.90
52321;DHT22;38261;54.090;13.382;2023-06-19T01:44:33;15.60;99.90
52321;DHT22;38261;54.090;13.382;2023-06-19T01:45:55;15.60;99.90
52321;DHT22;38261;54.090;13.382;2023-06-19T01:47:18;15.60;99.90
52321;DHT22;38261;54.090;13.382;2023-06-19T01:48:42;15.60;99.90
52321;DHT22;38261;54.090;13.382;2023-06-19T01:50:05;15.60;99.90
52321;DHT22;38261;54.090;13.382;2023-06-19T01:51:27;15.50;99.90
52321;DHT22;38261;54.090;13.382;2023-06-19T01:52:50;15.50;99.90
52321;DHT22;38261;54.090;13.382;2023-06-19T01:54:13;15.50;99.90
52321;DHT22;38261;54.090;13.382;2023-06-19T01:55:35;15.50;99.90
52321;DHT22;38261;54.090;13.382;2023-06-19T01:56:58;15.50;99.90
52321;DHT22;38261;54.090;13.382;2023-06-19T01:58:20;15.50;99.90
52321;DHT22;38261;54.090;13.382;2023-06-19T01:59:42;15.40;99.90
52321;DHT22;38261;54.090;13.382;2023-06-19T02:01:05;15.40;99.90
52321;DHT22;38261;54.090;13.382;2023-06-19T02:02:27;15.40;99.90
52321;DHT22;38261;54.090;13.382;2023-06-19T02:03:49;15.40;99.90
52321;DHT22;38261;54.090;13.382;2023-06-19T02:05:11;15.40;99.90
52321;DHT22;38261;54.090;13.382;2023-06-19T02:06:35;15.40;99.90
52321;DHT22;38261;54.090;13.382;2023-06-19T02:07:57;15.40;99.90
52321;DHT22;38261;54.090;13.382;2023-06-19T02:09:19;15.30;99.90
52321;DHT22;38261;54.090;13.382;2023-06-19T02:10:42;15.30;99.90
52321;DHT22;38261;54.090;13.382;2023-06-19T02:12:04;15.40;99.90
52321;DHT22;38261;54.090;13.382;2023-06-19T02:13:27;15.30;99.90
52321;DHT22;38261;54.090;13.382;2023-06-19T02:14:49;15.30;99.90
52321;DHT22;38261;54.090;13.382;2023-06-19T02:16:11;15.30;99.90
52321;DHT22;38261;54.090;13.382;2023-06-19T02:17:33;15.30;99.90
52321;DHT22;38261;54.090;13.382;2023-06-19T02:18:55;15.30;99.90
52321;DHT22;38261;54.090;13.382;2023-06-19T02:20:18;15.30;99.90
52321;DHT22;38261;54.090;13.382;2023-06-19T02:21:42;15.30;99.90
52321;DHT22;38261;54.090;13.382;2023-06-19T02:23:04;15.30;99.90
52321;DHT22;38261;54.090;13.382;2023-06-19T02:24:26;15.30;99.90
52321;DHT22;38261;54.090;13.382;2023-06-19T02:25:48;15.30;99.90
52321;DHT22;38261;54.090;13.382;2023-06-19T02:27:11;15.30;99.90
52321;DHT22;38261;54.090;13.382;2023-06-19T02:28:33;15.30;99.90
52321;DHT22;38261;54.090;13.382;2023-06-19T02:29:55;15.30;99.90
52321;DHT22;38261;54.090;13.382;2023-06-19T02:31:17;15.30;99.90
52321;DHT22;38261;54.090;13.382;2023-06-19T02:32:39;15.30;99.90
52321;DHT22;38261;54.090;13.382;2023-06-19T02:34:01;15.30;99.90
52321;DHT22;38261;54.090;13.382;2023-06-19T02:35:24;15.30;99.90
52321;DHT22;38261;54.090;13.382;2023-06-19T02:36:46;15.30;99.90
52321;DHT22;38261;54.090;13.382;2023-06-19T02:38:09;15.40;99.90
52321;DHT22;38261;54.090;13.382;2023-06-19T02:39:31;15.40;99.90
52321;DHT22;38261;54.090;13.382;2023-06-19T02:40:54;15.40;99.90
52321;DHT22;38261;54.090;13.382;2023-06-19T02:42:16;15.40;99.90
52321;DHT22;38261;54.090;13.382;2023-06-19T02:43:39;15.40;99.90
52321;DHT22;38261;54.090;13.382;2023-06-19T02:45:02;15.40;99.90
52321;DHT22;38261;54.090;13.382;2023-06-19T02:46:27;15.40;99.90
52321;DHT22;38261;54.090;13.382;2023-06-19T02:47:49;15.40;99.90
52321;DHT22;38261;54.090;13.382;2023-06-19T02:49:13;15.40;99.90
52321;DHT22;38261;54.090;13.382;2023-06-19T02:50:36;15.40;99.90
52321;DHT22;38261;54.090;13.382;2023-06-19T02:51:58;15.40;99.90
52321;DHT22;38261;54.090;13.382;2023-06-19T02:53:20;15.40;99.90
52321;DHT22;38261;54.090;13.382;2023-06-19T02:54:42;15.40;99.90
52321;DHT22;38261;54.090;13.382;2023-06-19T02:56:04;15.50;99.90
52321;DHT22;38261;54.090;13.382;2023-06-19T02:57:26;15.40;99.90
52321;DHT22;38261;54.090;13.382;2023-06-19T02:58:48;15.50;99.90
52321;DHT22;38261;54.090;13.382;2023-06-19T03:00:11;15.50;99.90
52321;DHT22;38261;54.090;13.382;2023-06-19T03:01:34;15.60;99.90
52321;DHT22;38261;54.090;13.382;2023-06-19T03:02:56;15.60;99.90
52321;DHT22;38261;54.090;13.382;2023-06-19T03:04:19;15.70;99.90
52321;DHT22;38261;54.090;13.382;2023-06-19T03:05:41;15.70;99.90
52321;DHT22;38261;54.090;13.382;2023-06-19T03:07:03;15.70;99.90
52321;DHT22;38261;54.090;13.382;2023-06-19T03:08:26;15.80;99.90
52321;DHT22;38261;54.090;13.382;2023-06-19T03:09:48;15.70;99.90
52321;DHT22;38261;54.090;13.382;2023-06-19T03:11:10;15.80;99.90
52321;DHT22;38261;54.090;13.382;2023-06-19T03:12:33;15.80;99.90
52321;DHT22;38261;54.090;13.382;2023-06-19T03:13:56;15.90;99.90
52321;DHT22;38261;54.090;13.382;2023-06-19T03:15:18;15.90;99.90
52321;DHT22;38261;54.090;13.382;2023-06-19T03:16:40;15.90;99.90
52321;DHT22;38261;54.090;13.382;2023-06-19T03:18:04;16.00;99.90
52321;DHT22;38261;54.090;13.382;2023-06-19T03:19:29;16.00;99.90
52321;DHT22;38261;54.090;13.382;2023-06-19T03:20:51;16.10;99.90
52321;DHT22;38261;54.090;13.382;2023-06-19T03:22:13;16.10;99.90
52321;DHT22;38261;54.090;13.382;2023-06-19T03:23:35;16.10;99.90
52321;DHT22;38261;54.090;13.382;2023-06-19T03:24:57;16.30;99.90
52321;DHT22;38261;54.090;13.382;2023-06-19T03:26:20;16.70;99.90
52321;DHT22;38261;54.090;13.382;2023-06-19T03:27:42;17.30;99.90
52321;DHT22;38261;54.090;13.382;2023-06-19T03:29:04;17.90;99.90
52321;DHT22;38261;54.090;13.382;2023-06-19T03:30:27;18.60;99.90
52321;DHT22;38261;54.090;13.382;2023-06-19T03:31:49;19.20;99.90
52321;DHT22;38261;54.090;13.382;2023-06-19T03:33:12;19.70;99.90
52321;DHT22;38261;54.090;13.382;2023-06-19T03:34:34;20.20;99.90
52321;DHT22;38261;54.090;13.382;2023-06-19T03:35:56;20.70;99.90
52321;DHT22;38261;54.090;13.382;2023-06-19T03:37:19;21.10;99.90
52321;DHT22;38261;54.090;13.382;2023-06-19T03:38:41;21.50;99.90
52321;DHT22;38261;54.090;13.382;2023-06-19T03:40:03;21.80;99.90
52321;DHT22;38261;54.090;13.382;2023-06-19T03:41:27;22.00;99.90
52321;DHT22;38261;54.090;13.382;2023-06-19T03:42:49;22.30;99.90
52321;DHT22;38261;54.090;13.382;2023-06-19T03:44:12;22.60;99.90
52321;DHT22;38261;54.090;13.382;2023-06-19T03:45:34;22.90;99.90
52321;DHT22;38261;54.090;13.382;2023-06-19T03:46:56;23.10;99.90
52321;DHT22;38261;54.090;13.382;2023-06-19T03:48:18;23.30;99.90
52321;DHT22;38261;54.090;13.382;2023-06-19T03:49:40;23.60;99.90
52321;DHT22;38261;54.090;13.382;2023-06-19T03:51:02;23.90;99.90
52321;DHT22;38261;54.090;13.382;2023-06-19T03:52:25;24.10;99.90
52321;DHT22;38261;54.090;13.382;2023-06-19T03:53:47;24.40;99.90
52321;DHT22;38261;54.090;13.382;2023-06-19T03:55:09;24.60;99.90
52321;DHT22;38261;54.090;13.382;2023-06-19T03:56:31;24.90;99.90
52321;DHT22;38261;54.090;13.382;2023-06-19T03:57:53;25.10;99.90
52321;DHT22;38261;54.090;13.382;2023-06-19T03:59:16;25.40;99.90
52321;DHT22;38261;54.090;13.382;2023-06-19T04:00:38;25.50;99.90
52321;DHT22;38261;54.090;13.382;2023-06-19T04:02:00;25.70;99.90
52321;DHT22;38261;54.090;13.382;2023-06-19T04:03:22;25.80;99.90
52321;DHT22;38261;54.090;13.382;2023-06-19T04:04:45;25.90;99.90
52321;DHT22;38261;54.090;13.382;2023-06-19T04:06:07;26.20;99.90
52321;DHT22;38261;54.090;13.382;2023-06-19T04:07:29;26.40;99.90
52321;DHT22;38261;54.090;13.382;2023-06-19T04:08:53;26.70;99.90
52321;DHT22;38261;54.090;13.382;2023-06-19T04:10:15;26.90;99.90
52321;DHT22;38261;54.090;13.382;2023-06-19T04:11:38;27.20;99.90
52321;DHT22;38261;54.090;13.382;2023-06-19T04:13:00;27.40;99.90
52321;DHT22;38261;54.090;13.382;2023-06-19T04:14:22;27.60;99.90
52321;DHT22;38261;54.090;13.382;2023-06-19T04:15:46;27.90;99.90
52321;DHT22;38261;54.090;13.382;2023-06-19T04:17:12;28.10;99.90
52321;DHT22;38261;54.090;13.382;2023-06-19T04:18:34;28.20;99.90
52321;DHT22;38261;54.090;13.382;2023-06-19T04:19:56;28.40;99.90
52321;DHT22;38261;54.090;13.382;2023-06-19T04:21:19;28.50;99.90
52321;DHT22;38261;54.090;13.382;2023-06-19T04:22:41;28.60;99.90
52321;DHT22;38261;54.090;13.382;2023-06-19T04:24:03;28.90;99.90
52321;DHT22;38261;54.090;13.382;2023-06-19T04:25:26;29.00;99.90
52321;DHT22;38261;54.090;13.382;2023-06-19T04:26:49;29.20;99.90
52321;DHT22;38261;54.090;13.382;2023-06-19T04:28:11;29.50;99.90
52321;DHT22;38261;54.090;13.382;2023-06-19T04:30:55;29.80;99.90
52321;DHT22;38261;54.090;13.382;2023-06-19T04:32:22;30.00;99.90
52321;DHT22;38261;54.090;13.382;2023-06-19T04:33:45;30.20;99.90
52321;DHT22;38261;54.090;13.382;2023-06-19T04:46:09;31.30;99.90
52321;DHT22;38261;54.090;13.382;2023-06-19T04:47:32;31.40;99.90
52321;DHT22;38261;54.090;13.382;2023-06-19T04:49:13;31.50;99.90
52321;DHT22;38261;54.090;13.382;2023-06-19T04:50:35;31.70;99.90
52321;DHT22;38261;54.090;13.382;2023-06-19T04:51:57;31.90;99.90
52321;DHT22;38261;54.090;13.382;2023-06-19T04:53:20;32.00;99.90
52321;DHT22;38261;54.090;13.382;2023-06-19T04:54:42;32.10;99.90
52321;DHT22;38261;54.090;13.382;2023-06-19T04:56:04;32.20;99.90
52321;DHT22;38261;54.090;13.382;2023-06-19T04:57:26;32.40;99.90
52321;DHT22;38261;54.090;13.382;2023-06-19T04:58:48;32.50;99.90
52321;DHT22;38261;54.090;13.382;2023-06-19T05:00:12;32.60;99.90
52321;DHT22;38261;54.090;13.382;2023-06-19T05:08:34;33.30;99.90
52321;DHT22;38261;54.090;13.382;2023-06-19T05:09:57;33.40;99.90
52321;DHT22;38261;54.090;13.382;2023-06-19T05:11:20;33.50;99.90
52321;DHT22;38261;54.090;13.382;2023-06-19T05:12:42;33.60;99.90
52321;DHT22;38261;54.090;13.382;2023-06-19T05:14:04;33.70;99.90
52321;DHT22;38261;54.090;13.382;2023-06-19T05:15:27;33.80;99.90
52321;DHT22;38261;54.090;13.382;2023-06-19T05:16:49;33.80;99.90
52321;DHT22;38261;54.090;13.382;2023-06-19T05:18:11;33.90;99.90
52321;DHT22;38261;54.090;13.382;2023-06-19T05:19:34;33.90;99.90
52321;DHT22;38261;54.090;13.382;2023-06-19T05:20:56;34.00;99.90
52321;DHT22;38261;54.090;13.382;2023-06-19T05:22:19;34.00;99.90
52321;DHT22;38261;54.090;13.382;2023-06-19T05:23:43;34.00;99.90
52321;DHT22;38261;54.090;13.382;2023-06-19T05:25:06;34.20;99.90
52321;DHT22;38261;54.090;13.382;2023-06-19T05:26:28;34.30;99.90
52321;DHT22;38261;54.090;13.382;2023-06-19T05:27:51;34.30;99.90
52321;DHT22;38261;54.090;13.382;2023-06-19T05:29:13;34.40;99.90
52321;DHT22;38261;54.090;13.382;2023-06-19T05:30:35;34.40;99.90
52321;DHT22;38261;54.090;13.382;2023-06-19T05:31:58;34.50;99.90
52321;DHT22;38261;54.090;13.382;2023-06-19T05:33:20;34.60;99.90
52321;DHT22;38261;54.090;13.382;2023-06-19T05:34:42;34.70;99.90
52321;DHT22;38261;54.090;13.382;2023-06-19T05:36:04;34.80;99.90
52321;DHT22;38261;54.090;13.382;2023-06-19T05:37:27;34.90;99.90
52321;DHT22;38261;54.090;13.382;2023-06-19T05:38:49;35.00;99.90
52321;DHT22;38261;54.090;13.382;2023-06-19T05:40:11;34.90;99.90
52321;DHT22;38261;54.090;13.382;2023-06-19T05:41:34;35.00;99.90
52321;DHT22;38261;54.090;13.382;2023-06-19T05:42:56;35.10;99.90
52321;DHT22;38261;54.090;13.382;2023-06-19T05:44:18;35.30;99.90
52321;DHT22;38261;54.090;13.382;2023-06-19T05:45:41;35.30;99.90
52321;DHT22;38261;54.090;13.382;2023-06-19T05:47:03;35.40;99.90
52321;DHT22;38261;54.090;13.382;2023-06-19T05:48:26;35.40;99.90
52321;DHT22;38261;54.090;13.382;2023-06-19T05:49:48;35.30;99.90
52321;DHT22;38261;54.090;13.382;2023-06-19T05:51:10;35.30;99.90
52321;DHT22;38261;54.090;13.382;2023-06-19T05:52:33;35.20;99.90
52321;DHT22;38261;54.090;13.382;2023-06-19T05:53:55;35.10;99.90
52321;DHT22;38261;54.090;13.382;2023-06-19T05:55:23;35.00;99.90
52321;DHT22;38261;54.090;13.382;2023-06-19T05:56:47;35.00;99.90
52321;DHT22;38261;54.090;13.382;2023-06-19T05:58:12;35.00;99.90
52321;DHT22;38261;54.090;13.382;2023-06-19T05:59:34;35.00;99.90
52321;DHT22;38261;54.090;13.382;2023-06-19T06:00:56;34.90;99.90
52321;DHT22;38261;54.090;13.382;2023-06-19T06:02:22;34.80;99.90
52321;DHT22;38261;54.090;13.382;2023-06-19T06:03:44;34.80;99.90
52321;DHT22;38261;54.090;13.382;2023-06-19T06:05:07;34.80;99.90
52321;DHT22;38261;54.090;13.382;2023-06-19T06:06:30;35.00;99.90
52321;DHT22;38261;54.090;13.382;2023-06-19T06:07:53;35.10;99.90
52321;DHT22;38261;54.090;13.382;2023-06-19T06:09:15;34.70;99.90
52321;DHT22;38261;54.090;13.382;2023-06-19T06:10:38;34.70;99.90
52321;DHT22;38261;54.090;13.382;2023-06-19T06:12:00;34.50;99.90
52321;DHT22;38261;54.090;13.382;2023-06-19T06:13:22;34.50;99.90
52321;DHT22;38261;54.090;13.382;2023-06-19T06:14:45;34.40;99.90
52321;DHT22;38261;54.090;13.382;2023-06-19T06:16:07;34.30;99.90
52321;DHT22;38261;54.090;13.382;2023-06-19T06:17:29;34.10;99.90
52321;DHT22;38261;54.090;13.382;2023-06-19T06:18:55;34.10;99.90
52321;DHT22;38261;54.090;13.382;2023-06-19T06:20:17;34.10;99.90
52321;DHT22;38261;54.090;13.382;2023-06-19T06:21:40;34.20;99.90
52321;DHT22;38261;54.090;13.382;2023-06-19T06:23:04;34.20;99.90
52321;DHT22;38261;54.090;13.382;2023-06-19T06:24:26;34.30;99.90
52321;DHT22;38261;54.090;13.382;2023-06-19T06:25:49;34.40;99.90
52321;DHT22;38261;54.090;13.382;2023-06-19T06:27:12;34.50;99.90
52321;DHT22;38261;54.090;13.382;2023-06-19T06:36:53;31.80;99.90
52321;DHT22;38261;54.090;13.382;2023-06-19T06:38:27;31.10;99.90
52321;DHT22;38261;54.090;13.382;2023-06-19T06:39:49;30.50;99.90
52321;DHT22;38261;54.090;13.382;2023-06-19T06:41:11;30.20;99.90
52321;DHT22;38261;54.090;13.382;2023-06-19T06:42:34;30.00;99.90
52321;DHT22;38261;54.090;13.382;2023-06-19T06:43:56;29.90;99.90
52321;DHT22;38261;54.090;13.382;2023-06-19T06:45:18;29.80;99.90
52321;DHT22;38261;54.090;13.382;2023-06-19T06:46:40;29.70;99.90
52321;DHT22;38261;54.090;13.382;2023-06-19T06:48:03;29.70;99.90
52321;DHT22;38261;54.090;13.382;2023-06-19T06:49:25;29.70;99.90
52321;DHT22;38261;54.090;13.382;2023-06-19T06:50:47;29.50;99.90
52321;DHT22;38261;54.090;13.382;2023-06-19T06:52:09;29.40;99.90
52321;DHT22;38261;54.090;13.382;2023-06-19T06:53:31;29.40;99.90
52321;DHT22;38261;54.090;13.382;2023-06-19T06:54:54;29.40;99.90
52321;DHT22;38261;54.090;13.382;2023-06-19T06:56:16;29.50;99.90
52321;DHT22;38261;54.090;13.382;2023-06-19T06:57:38;29.40;99.90
52321;DHT22;38261;54.090;13.382;2023-06-19T06:59:00;29.40;99.90
52321;DHT22;38261;54.090;13.382;2023-06-19T07:00:22;29.40;99.90
52321;DHT22;38261;54.090;13.382;2023-06-19T07:01:45;29.30;99.90
52321;DHT22;38261;54.090;13.382;2023-06-19T07:03:07;29.30;99.90
52321;DHT22;38261;54.090;13.382;2023-06-19T07:04:29;29.20;99.90
52321;DHT22;38261;54.090;13.382;2023-06-19T07:05:52;29.10;99.90
52321;DHT22;38261;54.090;13.382;2023-06-19T07:07:14;29.10;99.90
52321;DHT22;38261;54.090;13.382;2023-06-19T07:08:36;29.00;99.90
52321;DHT22;38261;54.090;13.382;2023-06-19T07:09:59;29.00;99.90
52321;DHT22;38261;54.090;13.382;2023-06-19T07:11:21;28.90;99.90
52321;DHT22;38261;54.090;13.382;2023-06-19T07:12:47;29.00;99.90
52321;DHT22;38261;54.090;13.382;2023-06-19T07:14:10;28.90;99.90
52321;DHT22;38261;54.090;13.382;2023-06-19T07:15:32;28.80;99.90
52321;DHT22;38261;54.090;13.382;2023-06-19T07:16:54;28.70;99.90
52321;DHT22;38261;54.090;13.382;2023-06-19T07:18:17;28.60;99.90
52321;DHT22;38261;54.090;13.382;2023-06-19T07:19:39;28.40;99.90
52321;DHT22;38261;54.090;13.382;2023-06-19T07:21:03;28.40;99.90
52321;DHT22;38261;54.090;13.382;2023-06-19T07:22:27;28.20;99.90
52321;DHT22;38261;54.090;13.382;2023-06-19T07:23:49;28.10;99.90
52321;DHT22;38261;54.090;13.382;2023-06-19T07:25:12;28.00;99.90
52321;DHT22;38261;54.090;13.382;2023-06-19T07:26:34;27.90;99.90
52321;DHT22;38261;54.090;13.382;2023-06-19T07:30:41;27.50;99.90
52321;DHT22;38261;54.090;13.382;2023-06-19T07:32:04;27.50;99.90
52321;DHT22;38261;54.090;13.382;2023-06-19T07:33:26;27.40;99.90
52321;DHT22;38261;54.090;13.382;2023-06-19T07:34:49;27.30;99.90
52321;DHT22;38261;54.090;13.382;2023-06-19T07:36:11;27.20;99.90
52321;DHT22;38261;54.090;13.382;2023-06-19T07:37:37;27.10;99.90
52321;DHT22;38261;54.090;13.382;2023-06-19T07:39:00;27.00;99.90
52321;DHT22;38261;54.090;13.382;2023-06-19T07:40:22;27.00;99.90
52321;DHT22;38261;54.090;13.382;2023-06-19T07:41:44;26.90;99.90
52321;DHT22;38261;54.090;13.382;2023-06-19T07:43:07;26.90;99.90
52321;DHT22;38261;54.090;13.382;2023-06-19T07:44:29;26.90;99.90
52321;DHT22;38261;54.090;13.382;2023-06-19T07:45:52;26.80;99.90
52321;DHT22;38261;54.090;13.382;2023-06-19T07:47:16;26.80;99.90
52321;DHT22;38261;54.090;13.382;2023-06-19T07:48:39;26.70;99.90
52321;DHT22;38261;54.090;13.382;2023-06-19T07:50:02;26.70;99.90
52321;DHT22;38261;54.090;13.382;2023-06-19T07:51:25;26.70;99.90
52321;DHT22;38261;54.090;13.382;2023-06-19T07:52:47;26.70;99.90
52321;DHT22;38261;54.090;13.382;2023-06-19T07:54:09;26.80;99.90
52321;DHT22;38261;54.090;13.382;2023-06-19T07:55:31;26.80;99.90
52321;DHT22;38261;54.090;13.382;2023-06-19T07:56:54;26.80;99.90
52321;DHT22;38261;54.090;13.382;2023-06-19T07:58:16;26.90;99.90
52321;DHT22;38261;54.090;13.382;2023-06-19T07:59:38;26.90;99.90
52321;DHT22;38261;54.090;13.382;2023-06-19T08:01:01;27.00;99.90
52321;DHT22;38261;54.090;13.382;2023-06-19T08:02:23;27.00;99.90
52321;DHT22;38261;54.090;13.382;2023-06-19T08:03:45;27.10;99.90
52321;DHT22;38261;54.090;13.382;2023-06-19T08:05:09;27.20;99.90
52321;DHT22;38261;54.090;13.382;2023-06-19T08:06:31;27.20;99.90
52321;DHT22;38261;54.090;13.382;2023-06-19T08:07:54;27.20;99.90
52321;DHT22;38261;54.090;13.382;2023-06-19T08:09:16;27.20;99.90
52321;DHT22;38261;54.090;13.382;2023-06-19T08:10:38;27.20;99.90
52321;DHT22;38261;54.090;13.382;2023-06-19T08:12:01;27.30;99.90
52321;DHT22;38261;54.090;13.382;2023-06-19T08:13:23;27.30;99.90
52321;DHT22;38261;54.090;13.382;2023-06-19T08:14:46;27.40;99.90
52321;DHT22;38261;54.090;13.382;2023-06-19T08:16:08;27.50;99.90
52321;DHT22;38261;54.090;13.382;2023-06-19T08:17:32;27.50;99.90
52321;DHT22;38261;54.090;13.382;2023-06-19T08:18:54;27.50;99.90
52321;DHT22;38261;54.090;13.382;2023-06-19T08:20:16;27.60;99.90
52321;DHT22;38261;54.090;13.382;2023-06-19T08:21:38;27.70;99.90
52321;DHT22;38261;54.090;13.382;2023-06-19T08:23:00;27.80;99.90
52321;DHT22;38261;54.090;13.382;2023-06-19T08:24:24;28.00;99.90
52321;DHT22;38261;54.090;13.382;2023-06-19T08:25:46;28.00;99.90
52321;DHT22;38261;54.090;13.382;2023-06-19T08:27:09;28.00;99.90
52321;DHT22;38261;54.090;13.382;2023-06-19T08:28:32;28.00;99.90
52321;DHT22;38261;54.090;13.382;2023-06-19T08:29:54;28.10;99.90
52321;DHT22;38261;54.090;13.382;2023-06-19T08:31:16;28.10;99.90
52321;DHT22;38261;54.090;13.382;2023-06-19T08:32:39;28.20;99.90
52321;DHT22;38261;54.090;13.382;2023-06-19T08:34:01;28.30;99.90
52321;DHT22;38261;54.090;13.382;2023-06-19T08:35:28;28.40;99.90
52321;DHT22;38261;54.090;13.382;2023-06-19T08:36:51;28.50;99.90
52321;DHT22;38261;54.090;13.382;2023-06-19T08:38:13;28.70;99.90
52321;DHT22;38261;54.090;13.382;2023-06-19T08:39:35;28.80;99.90
52321;DHT22;38261;54.090;13.382;2023-06-19T08:41:02;28.90;99.90
52321;DHT22;38261;54.090;13.382;2023-06-19T08:42:24;29.10;99.90
52321;DHT22;38261;54.090;13.382;2023-06-19T08:43:46;29.20;99.90
52321;DHT22;38261;54.090;13.382;2023-06-19T08:45:08;29.30;99.90
52321;DHT22;38261;54.090;13.382;2023-06-19T08:46:31;29.30;99.90
52321;DHT22;38261;54.090;13.382;2023-06-19T08:48:01;29.30;99.90
52321;DHT22;38261;54.090;13.382;2023-06-19T08:49:25;29.40;99.90
52321;DHT22;38261;54.090;13.382;2023-06-19T08:50:48;29.40;99.90
52321;DHT22;38261;54.090;13.382;2023-06-19T08:52:10;29.50;99.90
52321;DHT22;38261;54.090;13.382;2023-06-19T08:53:36;29.60;99.90
52321;DHT22;38261;54.090;13.382;2023-06-19T08:54:59;29.60;99.90
52321;DHT22;38261;54.090;13.382;2023-06-19T08:56:21;29.60;99.90
52321;DHT22;38261;54.090;13.382;2023-06-19T08:57:43;29.60;99.90
52321;DHT22;38261;54.090;13.382;2023-06-19T08:59:13;29.70;99.90
52321;DHT22;38261;54.090;13.382;2023-06-19T09:00:35;29.70;99.90
52321;DHT22;38261;54.090;13.382;2023-06-19T09:01:58;29.70;99.90
52321;DHT22;38261;54.090;13.382;2023-06-19T09:03:21;29.70;99.90
52321;DHT22;38261;54.090;13.382;2023-06-19T09:04:43;29.70;99.90
52321;DHT22;38261;54.090;13.382;2023-06-19T09:06:09;29.80;99.90
52321;DHT22;38261;54.090;13.382;2023-06-19T09:07:31;30.00;99.90
52321;DHT22;38261;54.090;13.382;2023-06-19T09:09:00;30.00;99.90
52321;DHT22;38261;54.090;13.382;2023-06-19T09:10:22;30.10;99.90